sensor_id;sensor_type;location;lat;lon;timestamp;P1;durP1;ratioP1;P2;durP2;ratioP2
72728;SDS011;60843;52.062;4.508;2022-08-06T00:00:55;3.58;;;1.02;;
72728;SDS011;60843;52.062;4.508;2022-08-06T00:03:20;7.13;;;1.08;;
72728;SDS011;60843;52.062;4.508;2022-08-06T00:05:46;4.95;;;1.27;;
72728;SDS011;60843;52.062;4.508;2022-08-06T00:08:13;6.47;;;1.38;;
72728;SDS011;60843;52.062;4.508;2022-08-06T00:10:38;5.57;;;1.33;;
72728;SDS011;60843;52.062;4.508;2022-08-06T00:13:04;4.18;;;1.00;;
72728;SDS011;60843;52.062;4.508;2022-08-06T00:15:30;5.60;;;1.13;;
72728;SDS011;60843;52.062;4.508;2022-08-06T00:17:56;4.18;;;1.08;;
72728;SDS011;60843;52.062;4.508;2022-08-06T00:20:21;6.40;;;1.40;;
72728;SDS011;60843;52.062;4.508;2022-08-06T00:22:47;4.90;;;1.13;;
72728;SDS011;60843;52.062;4.508;2022-08-06T00:25:13;6.43;;;1.25;;
72728;SDS011;60843;52.062;4.508;2022-08-06T00:27:39;4.05;;;1.50;;
72728;SDS011;60843;52.062;4.508;2022-08-06T00:30:05;6.38;;;1.30;;
72728;SDS011;60843;52.062;4.508;2022-08-06T00:32:32;6.32;;;1.27;;
72728;SDS011;60843;52.062;4.508;2022-08-06T00:34:57;5.40;;;1.40;;
72728;SDS011;60843;52.062;4.508;2022-08-06T00:37:23;6.93;;;1.20;;
72728;SDS011;60843;52.062;4.508;2022-08-06T00:39:49;3.80;;;1.23;;
72728;SDS011;60843;52.062;4.508;2022-08-06T00:42:14;4.03;;;1.27;;
72728;SDS011;60843;52.062;4.508;2022-08-06T00:44:40;4.38;;;1.00;;
72728;SDS011;60843;52.062;4.508;2022-08-06T00:47:06;6.13;;;1.15;;
72728;SDS011;60843;52.062;4.508;2022-08-06T00:49:31;4.63;;;1.23;;
72728;SDS011;60843;52.062;4.508;2022-08-06T00:51:57;4.22;;;1.45;;
72728;SDS011;60843;52.062;4.508;2022-08-06T00:54:23;6.80;;;1.58;;
72728;SDS011;60843;52.062;4.508;2022-08-06T00:56:48;7.10;;;1.65;;
72728;SDS011;60843;52.062;4.508;2022-08-06T00:59:14;8.40;;;1.92;;
72728;SDS011;60843;52.062;4.508;2022-08-06T01:01:40;4.28;;;1.45;;
72728;SDS011;60843;52.062;4.508;2022-08-06T01:04:05;6.43;;;1.80;;
72728;SDS011;60843;52.062;4.508;2022-08-06T01:06:31;4.88;;;1.83;;
72728;SDS011;60843;52.062;4.508;2022-08-06T01:08:57;3.53;;;1.40;;
72728;SDS011;60843;52.062;4.508;2022-08-06T01:11:22;4.00;;;1.35;;
72728;SDS011;60843;52.062;4.508;2022-08-06T01:13:48;7.53;;;1.63;;
72728;SDS011;60843;52.062;4.508;2022-08-06T01:16:19;4.25;;;1.20;;
72728;SDS011;60843;52.062;4.508;2022-08-06T01:18:57;4.13;;;1.55;;
72728;SDS011;60843;52.062;4.508;2022-08-06T01:24:27;3.63;;;1.33;;
72728;SDS011;60843;52.062;4.508;2022-08-06T01:29:52;7.65;;;1.88;;
72728;SDS011;60843;52.062;4.508;2022-08-06T01:32:25;7.10;;;1.70;;
72728;SDS011;60843;52.062;4.508;2022-08-06T01:35:01;5.72;;;1.55;;
72728;SDS011;60843;52.062;4.508;2022-08-06T01:37:32;4.53;;;1.33;;
72728;SDS011;60843;52.062;4.508;2022-08-06T01:40:06;6.60;;;1.40;;
72728;SDS011;60843;52.062;4.508;2022-08-06T01:42:36;3.55;;;1.35;;
72728;SDS011;60843;52.062;4.508;2022-08-06T01:45:02;7.28;;;1.30;;
72728;SDS011;60843;52.062;4.508;2022-08-06T01:47:30;4.32;;;1.33;;
72728;SDS011;60843;52.062;4.508;2022-08-06T01:49:57;5.68;;;1.45;;
72728;SDS011;60843;52.062;4.508;2022-08-06T01:52:25;3.97;;;1.13;;
72728;SDS011;60843;52.062;4.508;2022-08-06T01:54:51;5.18;;;1.08;;
72728;SDS011;60843;52.062;4.508;2022-08-06T01:57:18;5.57;;;1.05;;
72728;SDS011;60843;52.062;4.508;2022-08-06T01:59:50;2.83;;;1.17;;
72728;SDS011;60843;52.062;4.508;2022-08-06T02:02:21;5.30;;;1.10;;
72728;SDS011;60843;52.062;4.508;2022-08-06T02:04:49;3.10;;;1.02;;
72728;SDS011;60843;52.062;4.508;2022-08-06T02:07:16;3.47;;;0.88;;
72728;SDS011;60843;52.062;4.508;2022-08-06T02:12:14;5.18;;;1.15;;
72728;SDS011;60843;52.062;4.508;2022-08-06T02:15:06;1.98;;;1.00;;
72728;SDS011;60843;52.062;4.508;2022-08-06T02:17:33;3.25;;;1.17;;
72728;SDS011;60843;52.062;4.508;2022-08-06T02:20:03;4.78;;;1.10;;
72728;SDS011;60843;52.062;4.508;2022-08-06T02:22:31;4.82;;;0.95;;
72728;SDS011;60843;52.062;4.508;2022-08-06T02:24:59;4.53;;;1.52;;
72728;SDS011;60843;52.062;4.508;2022-08-06T02:27:26;3.22;;;1.00;;
72728;SDS011;60843;52.062;4.508;2022-08-06T02:29:52;1.50;;;0.70;;
72728;SDS011;60843;52.062;4.508;2022-08-06T02:32:19;8.68;;;0.95;;
72728;SDS011;60843;52.062;4.508;2022-08-06T02:34:44;3.42;;;1.10;;
72728;SDS011;60843;52.062;4.508;2022-08-06T02:37:17;2.60;;;0.90;;
72728;SDS011;60843;52.062;4.508;2022-08-06T02:39:46;2.70;;;0.90;;
72728;SDS011;60843;52.062;4.508;2022-08-06T02:42:19;3.75;;;1.02;;
72728;SDS011;60843;52.062;4.508;2022-08-06T02:44:52;2.13;;;0.90;;
72728;SDS011;60843;52.062;4.508;2022-08-06T02:47:27;3.25;;;0.82;;
72728;SDS011;60843;52.062;4.508;2022-08-06T02:49:57;2.40;;;0.70;;
72728;SDS011;60843;52.062;4.508;2022-08-06T02:52:47;2.15;;;1.00;;
72728;SDS011;60843;52.062;4.508;2022-08-06T02:55:19;1.75;;;0.70;;
72728;SDS011;60843;52.062;4.508;2022-08-06T02:57:47;2.92;;;0.50;;
72728;SDS011;60843;52.062;4.508;2022-08-06T03:00:15;2.55;;;0.85;;
72728;SDS011;60843;52.062;4.508;2022-08-06T03:02:41;5.90;;;1.05;;
72728;SDS011;60843;52.062;4.508;2022-08-06T03:05:10;5.18;;;0.90;;
72728;SDS011;60843;52.062;4.508;2022-08-06T03:07:42;2.50;;;0.80;;
72728;SDS011;60843;52.062;4.508;2022-08-06T03:10:08;2.75;;;0.70;;
72728;SDS011;60843;52.062;4.508;2022-08-06T03:12:35;2.47;;;0.77;;
72728;SDS011;60843;52.062;4.508;2022-08-06T03:15:02;1.48;;;0.80;;
72728;SDS011;60843;52.062;4.508;2022-08-06T03:17:29;5.45;;;1.08;;
72728;SDS011;60843;52.062;4.508;2022-08-06T03:19:55;2.83;;;0.93;;
72728;SDS011;60843;52.062;4.508;2022-08-06T03:22:21;4.45;;;0.90;;
72728;SDS011;60843;52.062;4.508;2022-08-06T03:24:47;4.60;;;1.25;;
72728;SDS011;60843;52.062;4.508;2022-08-06T03:27:14;3.75;;;1.10;;
72728;SDS011;60843;52.062;4.508;2022-08-06T03:29:41;4.05;;;1.13;;
72728;SDS011;60843;52.062;4.508;2022-08-06T03:32:07;3.85;;;1.10;;
72728;SDS011;60843;52.062;4.508;2022-08-06T03:34:34;5.35;;;1.30;;
72728;SDS011;60843;52.062;4.508;2022-08-06T03:37:00;4.07;;;1.17;;
72728;SDS011;60843;52.062;4.508;2022-08-06T03:39:27;5.10;;;1.25;;
72728;SDS011;60843;52.062;4.508;2022-08-06T03:41:54;4.03;;;1.42;;
72728;SDS011;60843;52.062;4.508;2022-08-06T03:44:21;4.15;;;1.25;;
72728;SDS011;60843;52.062;4.508;2022-08-06T03:46:48;2.92;;;1.10;;
72728;SDS011;60843;52.062;4.508;2022-08-06T03:49:21;3.45;;;1.20;;
72728;SDS011;60843;52.062;4.508;2022-08-06T03:51:51;4.95;;;1.20;;
72728;SDS011;60843;52.062;4.508;2022-08-06T03:54:20;3.17;;;0.90;;
72728;SDS011;60843;52.062;4.508;2022-08-06T03:56:48;4.50;;;1.02;;
72728;SDS011;60843;52.062;4.508;2022-08-06T03:59:14;2.45;;;0.95;;
72728;SDS011;60843;52.062;4.508;2022-08-06T04:01:42;5.40;;;1.10;;
72728;SDS011;60843;52.062;4.508;2022-08-06T04:04:08;2.83;;;1.15;;
72728;SDS011;60843;52.062;4.508;2022-08-06T04:06:34;2.83;;;1.13;;
72728;SDS011;60843;52.062;4.508;2022-08-06T04:08:59;5.15;;;1.30;;
72728;SDS011;60843;52.062;4.508;2022-08-06T04:11:26;3.42;;;1.58;;
72728;SDS011;60843;52.062;4.508;2022-08-06T04:13:51;3.65;;;1.60;;
72728;SDS011;60843;52.062;4.508;2022-08-06T04:16:17;3.17;;;1.50;;
72728;SDS011;60843;52.062;4.508;2022-08-06T04:18:43;5.80;;;1.13;;
72728;SDS011;60843;52.062;4.508;2022-08-06T04:21:11;4.68;;;0.98;;
72728;SDS011;60843;52.062;4.508;2022-08-06T04:23:40;7.40;;;1.40;;
72728;SDS011;60843;52.062;4.508;2022-08-06T04:26:06;6.00;;;1.13;;
72728;SDS011;60843;52.062;4.508;2022-08-06T04:28:33;2.47;;;1.08;;
72728;SDS011;60843;52.062;4.508;2022-08-06T04:31:00;3.70;;;1.48;;
72728;SDS011;60843;52.062;4.508;2022-08-06T04:33:26;3.97;;;1.17;;
72728;SDS011;60843;52.062;4.508;2022-08-06T04:35:52;3.17;;;1.10;;
72728;SDS011;60843;52.062;4.508;2022-08-06T04:38:19;5.60;;;1.20;;
72728;SDS011;60843;52.062;4.508;2022-08-06T04:40:45;4.93;;;1.27;;
72728;SDS011;60843;52.062;4.508;2022-08-06T04:43:11;2.95;;;1.02;;
72728;SDS011;60843;52.062;4.508;2022-08-06T04:45:38;3.08;;;1.13;;
72728;SDS011;60843;52.062;4.508;2022-08-06T04:48:06;5.72;;;1.13;;
72728;SDS011;60843;52.062;4.508;2022-08-06T04:50:35;4.18;;;1.30;;
72728;SDS011;60843;52.062;4.508;2022-08-06T04:53:08;3.05;;;1.20;;
72728;SDS011;60843;52.062;4.508;2022-08-06T04:58:01;5.40;;;1.15;;
72728;SDS011;60843;52.062;4.508;2022-08-06T05:00:28;5.13;;;1.33;;
72728;SDS011;60843;52.062;4.508;2022-08-06T05:02:54;4.90;;;1.35;;
72728;SDS011;60843;52.062;4.508;2022-08-06T05:05:20;3.78;;;1.30;;
72728;SDS011;60843;52.062;4.508;2022-08-06T05:07:46;4.30;;;1.25;;
72728;SDS011;60843;52.062;4.508;2022-08-06T05:10:13;2.35;;;1.08;;
72728;SDS011;60843;52.062;4.508;2022-08-06T05:12:41;4.00;;;1.75;;
72728;SDS011;60843;52.062;4.508;2022-08-06T05:15:10;3.30;;;1.40;;
72728;SDS011;60843;52.062;4.508;2022-08-06T05:17:45;4.07;;;1.33;;
72728;SDS011;60843;52.062;4.508;2022-08-06T05:20:16;3.40;;;1.10;;
72728;SDS011;60843;52.062;4.508;2022-08-06T05:22:46;5.95;;;1.40;;
72728;SDS011;60843;52.062;4.508;2022-08-06T05:25:14;4.50;;;1.23;;
72728;SDS011;60843;52.062;4.508;2022-08-06T05:27:40;4.90;;;1.02;;
72728;SDS011;60843;52.062;4.508;2022-08-06T05:30:06;2.67;;;0.80;;
72728;SDS011;60843;52.062;4.508;2022-08-06T05:32:46;1.55;;;0.68;;
72728;SDS011;60843;52.062;4.508;2022-08-06T05:35:12;3.10;;;0.80;;
72728;SDS011;60843;52.062;4.508;2022-08-06T05:37:38;6.63;;;1.88;;
72728;SDS011;60843;52.062;4.508;2022-08-06T05:40:04;2.13;;;0.77;;
72728;SDS011;60843;52.062;4.508;2022-08-06T05:42:31;2.65;;;0.90;;
72728;SDS011;60843;52.062;4.508;2022-08-06T05:44:57;4.03;;;0.80;;
72728;SDS011;60843;52.062;4.508;2022-08-06T05:47:32;4.00;;;0.70;;
72728;SDS011;60843;52.062;4.508;2022-08-06T05:50:09;4.65;;;0.80;;
72728;SDS011;60843;52.062;4.508;2022-08-06T05:55:13;1.35;;;0.80;;
72728;SDS011;60843;52.062;4.508;2022-08-06T05:57:44;3.33;;;0.73;;
72728;SDS011;60843;52.062;4.508;2022-08-06T06:00:15;2.35;;;0.60;;
72728;SDS011;60843;52.062;4.508;2022-08-06T06:02:43;5.05;;;0.65;;
72728;SDS011;60843;52.062;4.508;2022-08-06T06:05:11;2.38;;;0.55;;
72728;SDS011;60843;52.062;4.508;2022-08-06T06:07:37;3.10;;;0.57;;
72728;SDS011;60843;52.062;4.508;2022-08-06T06:10:04;1.83;;;0.65;;
72728;SDS011;60843;52.062;4.508;2022-08-06T06:12:31;3.20;;;0.70;;
72728;SDS011;60843;52.062;4.508;2022-08-06T06:14:57;4.25;;;0.82;;
72728;SDS011;60843;52.062;4.508;2022-08-06T06:17:40;2.92;;;0.68;;
72728;SDS011;60843;52.062;4.508;2022-08-06T06:28:28;0.63;;;0.30;;
72728;SDS011;60843;52.062;4.508;2022-08-06T06:30:59;1.67;;;0.40;;
72728;SDS011;60843;52.062;4.508;2022-08-06T06:41:39;0.60;;;0.28;;
72728;SDS011;60843;52.062;4.508;2022-08-06T06:50:18;1.48;;;0.40;;
72728;SDS011;60843;52.062;4.508;2022-08-06T06:52:47;1.70;;;0.55;;
72728;SDS011;60843;52.062;4.508;2022-08-06T06:55:21;4.30;;;0.50;;
72728;SDS011;60843;52.062;4.508;2022-08-06T06:58:03;3.30;;;0.70;;
72728;SDS011;60843;52.062;4.508;2022-08-06T07:00:32;1.77;;;0.30;;
72728;SDS011;60843;52.062;4.508;2022-08-06T07:02:58;1.63;;;0.40;;
72728;SDS011;60843;52.062;4.508;2022-08-06T07:05:24;1.60;;;0.50;;
72728;SDS011;60843;52.062;4.508;2022-08-06T07:07:50;1.42;;;0.45;;
72728;SDS011;60843;52.062;4.508;2022-08-06T07:10:17;3.63;;;0.40;;
72728;SDS011;60843;52.062;4.508;2022-08-06T07:12:44;1.55;;;0.40;;
72728;SDS011;60843;52.062;4.508;2022-08-06T07:15:10;2.83;;;0.50;;
72728;SDS011;60843;52.062;4.508;2022-08-06T07:17:37;1.20;;;0.40;;
72728;SDS011;60843;52.062;4.508;2022-08-06T07:20:05;2.95;;;0.43;;
72728;SDS011;60843;52.062;4.508;2022-08-06T07:22:32;1.05;;;0.40;;
72728;SDS011;60843;52.062;4.508;2022-08-06T07:24:59;1.08;;;0.40;;
72728;SDS011;60843;52.062;4.508;2022-08-06T07:27:26;2.10;;;0.50;;
72728;SDS011;60843;52.062;4.508;2022-08-06T07:29:54;1.52;;;0.45;;
72728;SDS011;60843;52.062;4.508;2022-08-06T07:32:20;6.13;;;0.52;;
72728;SDS011;60843;52.062;4.508;2022-08-06T07:34:46;1.65;;;0.40;;
72728;SDS011;60843;52.062;4.508;2022-08-06T07:37:12;1.50;;;0.30;;
72728;SDS011;60843;52.062;4.508;2022-08-06T07:39:39;2.35;;;0.30;;
72728;SDS011;60843;52.062;4.508;2022-08-06T07:42:06;5.22;;;0.50;;
72728;SDS011;60843;52.062;4.508;2022-08-06T07:44:35;1.45;;;0.60;;
72728;SDS011;60843;52.062;4.508;2022-08-06T07:47:04;2.13;;;0.60;;
72728;SDS011;60843;52.062;4.508;2022-08-06T07:49:53;8.68;;;0.60;;
72728;SDS011;60843;52.062;4.508;2022-08-06T07:52:21;2.80;;;0.50;;
72728;SDS011;60843;52.062;4.508;2022-08-06T07:54:48;2.17;;;0.50;;
72728;SDS011;60843;52.062;4.508;2022-08-06T07:57:21;1.05;;;0.40;;
72728;SDS011;60843;52.062;4.508;2022-08-06T07:59:48;1.42;;;0.60;;
72728;SDS011;60843;52.062;4.508;2022-08-06T08:02:14;3.97;;;0.30;;
72728;SDS011;60843;52.062;4.508;2022-08-06T08:04:52;1.83;;;0.50;;
72728;SDS011;60843;52.062;4.508;2022-08-06T08:07:39;2.38;;;0.43;;
72728;SDS011;60843;52.062;4.508;2022-08-06T08:10:24;3.15;;;0.70;;
72728;SDS011;60843;52.062;4.508;2022-08-06T08:12:50;1.27;;;0.32;;
72728;SDS011;60843;52.062;4.508;2022-08-06T08:15:37;1.08;;;0.22;;
72728;SDS011;60843;52.062;4.508;2022-08-06T08:18:03;1.85;;;0.50;;
72728;SDS011;60843;52.062;4.508;2022-08-06T08:20:29;2.83;;;0.50;;
72728;SDS011;60843;52.062;4.508;2022-08-06T08:23:11;1.98;;;0.55;;
72728;SDS011;60843;52.062;4.508;2022-08-06T08:26:34;5.07;;;0.30;;
72728;SDS011;60843;52.062;4.508;2022-08-06T08:28:59;3.72;;;0.43;;
72728;SDS011;60843;52.062;4.508;2022-08-06T08:31:26;1.20;;;0.50;;
72728;SDS011;60843;52.062;4.508;2022-08-06T08:33:51;2.25;;;0.57;;
72728;SDS011;60843;52.062;4.508;2022-08-06T08:36:17;1.00;;;0.20;;
72728;SDS011;60843;52.062;4.508;2022-08-06T08:38:46;1.33;;;0.40;;
72728;SDS011;60843;52.062;4.508;2022-08-06T08:41:13;1.45;;;0.25;;
72728;SDS011;60843;52.062;4.508;2022-08-06T08:43:47;1.85;;;0.40;;
72728;SDS011;60843;52.062;4.508;2022-08-06T08:46:16;5.05;;;0.52;;
72728;SDS011;60843;52.062;4.508;2022-08-06T08:48:42;0.68;;;0.20;;
72728;SDS011;60843;52.062;4.508;2022-08-06T08:51:08;1.80;;;0.45;;
72728;SDS011;60843;52.062;4.508;2022-08-06T08:53:37;2.70;;;0.32;;
72728;SDS011;60843;52.062;4.508;2022-08-06T08:56:05;5.25;;;0.30;;
72728;SDS011;60843;52.062;4.508;2022-08-06T08:58:31;0.68;;;0.20;;
72728;SDS011;60843;52.062;4.508;2022-08-06T09:01:01;0.82;;;0.30;;
72728;SDS011;60843;52.062;4.508;2022-08-06T09:03:27;1.38;;;0.45;;
72728;SDS011;60843;52.062;4.508;2022-08-06T09:05:53;0.80;;;0.30;;
72728;SDS011;60843;52.062;4.508;2022-08-06T09:08:18;1.60;;;0.35;;
72728;SDS011;60843;52.062;4.508;2022-08-06T09:10:44;0.88;;;0.20;;
72728;SDS011;60843;52.062;4.508;2022-08-06T09:13:10;0.63;;;0.25;;
72728;SDS011;60843;52.062;4.508;2022-08-06T09:15:36;4.07;;;0.40;;
72728;SDS011;60843;52.062;4.508;2022-08-06T09:18:01;2.00;;;0.30;;
72728;SDS011;60843;52.062;4.508;2022-08-06T09:20:27;0.55;;;0.20;;
72728;SDS011;60843;52.062;4.508;2022-08-06T09:22:52;1.58;;;0.38;;
72728;SDS011;60843;52.062;4.508;2022-08-06T09:25:52;0.43;;;0.17;;
72728;SDS011;60843;52.062;4.508;2022-08-06T09:31:00;0.43;;;0.32;;
72728;SDS011;60843;52.062;4.508;2022-08-06T09:33:26;1.45;;;0.32;;
72728;SDS011;60843;52.062;4.508;2022-08-06T09:35:59;2.88;;;0.43;;
72728;SDS011;60843;52.062;4.508;2022-08-06T09:38:26;2.00;;;0.40;;
72728;SDS011;60843;52.062;4.508;2022-08-06T09:41:06;3.22;;;0.30;;
72728;SDS011;60843;52.062;4.508;2022-08-06T09:43:38;1.50;;;0.50;;
72728;SDS011;60843;52.062;4.508;2022-08-06T09:46:05;0.52;;;0.30;;
72728;SDS011;60843;52.062;4.508;2022-08-06T09:48:31;0.70;;;0.30;;
72728;SDS011;60843;52.062;4.508;2022-08-06T09:50:57;0.55;;;0.30;;
72728;SDS011;60843;52.062;4.508;2022-08-06T09:53:23;3.72;;;0.50;;
72728;SDS011;60843;52.062;4.508;2022-08-06T09:55:49;1.55;;;0.80;;
72728;SDS011;60843;52.062;4.508;2022-08-06T09:58:35;1.00;;;0.30;;
72728;SDS011;60843;52.062;4.508;2022-08-06T10:01:10;0.57;;;0.10;;
72728;SDS011;60843;52.062;4.508;2022-08-06T10:03:38;1.77;;;0.30;;
72728;SDS011;60843;52.062;4.508;2022-08-06T10:06:04;1.15;;;0.40;;
72728;SDS011;60843;52.062;4.508;2022-08-06T10:08:33;1.92;;;0.40;;
72728;SDS011;60843;52.062;4.508;2022-08-06T10:10:59;2.05;;;0.20;;
72728;SDS011;60843;52.062;4.508;2022-08-06T10:13:28;0.85;;;0.22;;
72728;SDS011;60843;52.062;4.508;2022-08-06T10:15:55;1.35;;;0.30;;
72728;SDS011;60843;52.062;4.508;2022-08-06T10:21:12;1.60;;;0.45;;
72728;SDS011;60843;52.062;4.508;2022-08-06T10:23:44;1.42;;;0.20;;
72728;SDS011;60843;52.062;4.508;2022-08-06T10:26:16;0.65;;;0.30;;
72728;SDS011;60843;52.062;4.508;2022-08-06T10:28:44;0.63;;;0.25;;
72728;SDS011;60843;52.062;4.508;2022-08-06T10:31:12;0.90;;;0.30;;
72728;SDS011;60843;52.062;4.508;2022-08-06T10:34:00;3.15;;;0.28;;
72728;SDS011;60843;52.062;4.508;2022-08-06T10:39:07;1.73;;;0.25;;
72728;SDS011;60843;52.062;4.508;2022-08-06T10:41:33;2.40;;;0.20;;
72728;SDS011;60843;52.062;4.508;2022-08-06T10:44:00;0.73;;;0.20;;
72728;SDS011;60843;52.062;4.508;2022-08-06T10:46:27;0.98;;;0.30;;
72728;SDS011;60843;52.062;4.508;2022-08-06T10:48:53;0.30;;;0.20;;
72728;SDS011;60843;52.062;4.508;2022-08-06T10:51:19;0.95;;;0.30;;
72728;SDS011;60843;52.062;4.508;2022-08-06T10:53:48;1.85;;;0.25;;
72728;SDS011;60843;52.062;4.508;2022-08-06T10:56:15;0.88;;;0.30;;
72728;SDS011;60843;52.062;4.508;2022-08-06T10:58:41;1.58;;;0.25;;
72728;SDS011;60843;52.062;4.508;2022-08-06T11:01:30;0.82;;;0.40;;
72728;SDS011;60843;52.062;4.508;2022-08-06T11:04:16;1.20;;;0.25;;
72728;SDS011;60843;52.062;4.508;2022-08-06T11:14:53;0.98;;;0.25;;
72728;SDS011;60843;52.062;4.508;2022-08-06T11:17:20;2.22;;;0.30;;
72728;SDS011;60843;52.062;4.508;2022-08-06T11:19:46;0.70;;;0.20;;
72728;SDS011;60843;52.062;4.508;2022-08-06T11:25:02;0.32;;;0.22;;
72728;SDS011;60843;52.062;4.508;2022-08-06T11:30:38;1.52;;;0.30;;
72728;SDS011;60843;52.062;4.508;2022-08-06T11:35:58;0.15;;;0.10;;
72728;SDS011;60843;52.062;4.508;2022-08-06T11:41:17;1.55;;;0.30;;
72728;SDS011;60843;52.062;4.508;2022-08-06T11:54:18;0.93;;;0.40;;
72728;SDS011;60843;52.062;4.508;2022-08-06T12:01:55;3.47;;;0.80;;
72728;SDS011;60843;52.062;4.508;2022-08-06T12:17:42;2.53;;;0.60;;
72728;SDS011;60843;52.062;4.508;2022-08-06T12:23:10;1.77;;;0.70;;
72728;SDS011;60843;52.062;4.508;2022-08-06T12:25:37;0.80;;;0.60;;
72728;SDS011;60843;52.062;4.508;2022-08-06T12:30:43;1.95;;;0.88;;
72728;SDS011;60843;52.062;4.508;2022-08-06T12:33:17;1.05;;;0.57;;
72728;SDS011;60843;52.062;4.508;2022-08-06T12:35:57;1.13;;;0.40;;
72728;SDS011;60843;52.062;4.508;2022-08-06T12:38:24;2.53;;;0.50;;
72728;SDS011;60843;52.062;4.508;2022-08-06T12:41:07;0.60;;;0.50;;
72728;SDS011;60843;52.062;4.508;2022-08-06T12:43:34;0.63;;;0.30;;
72728;SDS011;60843;52.062;4.508;2022-08-06T12:48:33;0.68;;;0.35;;
72728;SDS011;60843;52.062;4.508;2022-08-06T12:51:05;1.08;;;0.57;;
72728;SDS011;60843;52.062;4.508;2022-08-06T12:53:32;1.42;;;0.60;;
72728;SDS011;60843;52.062;4.508;2022-08-06T12:56:03;1.75;;;0.52;;
72728;SDS011;60843;52.062;4.508;2022-08-06T12:58:32;1.48;;;0.40;;
72728;SDS011;60843;52.062;4.508;2022-08-06T13:01:02;2.25;;;0.70;;
72728;SDS011;60843;52.062;4.508;2022-08-06T13:03:33;1.13;;;0.55;;
72728;SDS011;60843;52.062;4.508;2022-08-06T13:06:04;2.45;;;0.60;;
72728;SDS011;60843;52.062;4.508;2022-08-06T13:08:34;0.80;;;0.55;;
72728;SDS011;60843;52.062;4.508;2022-08-06T13:11:04;1.13;;;0.60;;
72728;SDS011;60843;52.062;4.508;2022-08-06T13:16:16;0.60;;;0.30;;
72728;SDS011;60843;52.062;4.508;2022-08-06T13:18:42;1.38;;;0.70;;
72728;SDS011;60843;52.062;4.508;2022-08-06T13:21:29;1.17;;;0.60;;
72728;SDS011;60843;52.062;4.508;2022-08-06T13:23:55;0.80;;;0.63;;
72728;SDS011;60843;52.062;4.508;2022-08-06T13:26:22;1.60;;;0.50;;
72728;SDS011;60843;52.062;4.508;2022-08-06T13:31:57;2.58;;;1.02;;
72728;SDS011;60843;52.062;4.508;2022-08-06T13:34:23;1.02;;;0.45;;
72728;SDS011;60843;52.062;4.508;2022-08-06T13:36:53;1.85;;;1.17;;
72728;SDS011;60843;52.062;4.508;2022-08-06T13:42:02;3.58;;;1.40;;
72728;SDS011;60843;52.062;4.508;2022-08-06T13:44:32;1.17;;;0.57;;
72728;SDS011;60843;52.062;4.508;2022-08-06T13:47:03;1.80;;;0.70;;
72728;SDS011;60843;52.062;4.508;2022-08-06T13:49:32;1.90;;;0.88;;
72728;SDS011;60843;52.062;4.508;2022-08-06T13:52:02;1.77;;;0.80;;
72728;SDS011;60843;52.062;4.508;2022-08-06T13:54:30;4.10;;;0.85;;
72728;SDS011;60843;52.062;4.508;2022-08-06T13:56:56;4.50;;;0.63;;
72728;SDS011;60843;52.062;4.508;2022-08-06T13:59:24;4.38;;;0.98;;
72728;SDS011;60843;52.062;4.508;2022-08-06T14:01:51;2.28;;;1.10;;
72728;SDS011;60843;52.062;4.508;2022-08-06T14:04:18;1.88;;;0.90;;
72728;SDS011;60843;52.062;4.508;2022-08-06T14:06:49;1.27;;;1.00;;
72728;SDS011;60843;52.062;4.508;2022-08-06T14:09:17;2.50;;;1.10;;
72728;SDS011;60843;52.062;4.508;2022-08-06T14:17:19;3.00;;;1.27;;
72728;SDS011;60843;52.062;4.508;2022-08-06T14:19:44;2.72;;;1.30;;
72728;SDS011;60843;52.062;4.508;2022-08-06T14:22:10;2.38;;;1.40;;
72728;SDS011;60843;52.062;4.508;2022-08-06T14:24:36;1.70;;;1.20;;
72728;SDS011;60843;52.062;4.508;2022-08-06T14:27:03;2.45;;;1.60;;
72728;SDS011;60843;52.062;4.508;2022-08-06T14:29:31;1.83;;;1.00;;
72728;SDS011;60843;52.062;4.508;2022-08-06T14:31:57;1.40;;;0.90;;
72728;SDS011;60843;52.062;4.508;2022-08-06T14:34:34;2.13;;;1.00;;
72728;SDS011;60843;52.062;4.508;2022-08-06T14:37:03;1.77;;;0.82;;
72728;SDS011;60843;52.062;4.508;2022-08-06T14:39:29;2.63;;;1.20;;
72728;SDS011;60843;52.062;4.508;2022-08-06T14:41:58;1.48;;;1.05;;
72728;SDS011;60843;52.062;4.508;2022-08-06T14:44:42;2.92;;;1.40;;
72728;SDS011;60843;52.062;4.508;2022-08-06T14:47:19;2.63;;;1.15;;
72728;SDS011;60843;52.062;4.508;2022-08-06T14:49:47;1.75;;;1.00;;
72728;SDS011;60843;52.062;4.508;2022-08-06T14:52:22;2.78;;;1.02;;
72728;SDS011;60843;52.062;4.508;2022-08-06T14:54:51;3.67;;;1.40;;
72728;SDS011;60843;52.062;4.508;2022-08-06T14:57:18;1.60;;;1.00;;
72728;SDS011;60843;52.062;4.508;2022-08-06T14:59:44;2.05;;;0.90;;
72728;SDS011;60843;52.062;4.508;2022-08-06T15:02:28;1.52;;;1.00;;
72728;SDS011;60843;52.062;4.508;2022-08-06T15:04:55;1.52;;;1.00;;
72728;SDS011;60843;52.062;4.508;2022-08-06T15:07:23;2.08;;;1.00;;
72728;SDS011;60843;52.062;4.508;2022-08-06T15:09:52;1.60;;;0.93;;
72728;SDS011;60843;52.062;4.508;2022-08-06T15:12:18;3.05;;;0.95;;
72728;SDS011;60843;52.062;4.508;2022-08-06T15:14:44;3.45;;;0.90;;
72728;SDS011;60843;52.062;4.508;2022-08-06T15:17:10;1.48;;;0.90;;
72728;SDS011;60843;52.062;4.508;2022-08-06T15:19:36;1.92;;;0.88;;
72728;SDS011;60843;52.062;4.508;2022-08-06T15:22:02;1.48;;;0.95;;
72728;SDS011;60843;52.062;4.508;2022-08-06T15:24:28;3.53;;;1.02;;
72728;SDS011;60843;52.062;4.508;2022-08-06T15:26:53;1.85;;;0.80;;
72728;SDS011;60843;52.062;4.508;2022-08-06T15:29:23;3.63;;;1.35;;
72728;SDS011;60843;52.062;4.508;2022-08-06T15:31:51;4.63;;;1.80;;
72728;SDS011;60843;52.062;4.508;2022-08-06T15:34:17;3.17;;;1.55;;
72728;SDS011;60843;52.062;4.508;2022-08-06T15:36:43;4.40;;;2.35;;
72728;SDS011;60843;52.062;4.508;2022-08-06T15:39:09;1.60;;;1.00;;
72728;SDS011;60843;52.062;4.508;2022-08-06T15:41:35;3.15;;;0.80;;
72728;SDS011;60843;52.062;4.508;2022-08-06T15:44:01;1.60;;;0.70;;
72728;SDS011;60843;52.062;4.508;2022-08-06T15:46:26;1.23;;;0.60;;
72728;SDS011;60843;52.062;4.508;2022-08-06T15:48:52;1.00;;;0.77;;
72728;SDS011;60843;52.062;4.508;2022-08-06T15:51:22;2.20;;;0.70;;
72728;SDS011;60843;52.062;4.508;2022-08-06T15:53:49;1.30;;;0.40;;
72728;SDS011;60843;52.062;4.508;2022-08-06T15:56:18;1.23;;;0.73;;
72728;SDS011;60843;52.062;4.508;2022-08-06T15:58:46;3.13;;;0.93;;
72728;SDS011;60843;52.062;4.508;2022-08-06T16:01:12;1.52;;;0.73;;
72728;SDS011;60843;52.062;4.508;2022-08-06T16:03:37;1.40;;;0.63;;
72728;SDS011;60843;52.062;4.508;2022-08-06T16:06:03;2.30;;;0.60;;
72728;SDS011;60843;52.062;4.508;2022-08-06T16:08:29;2.00;;;0.63;;
72728;SDS011;60843;52.062;4.508;2022-08-06T16:13:26;3.88;;;0.65;;
72728;SDS011;60843;52.062;4.508;2022-08-06T16:15:54;2.10;;;0.80;;
72728;SDS011;60843;52.062;4.508;2022-08-06T16:18:20;0.98;;;0.40;;
72728;SDS011;60843;52.062;4.508;2022-08-06T16:20:47;1.33;;;0.40;;
72728;SDS011;60843;52.062;4.508;2022-08-06T16:23:14;1.77;;;0.60;;
72728;SDS011;60843;52.062;4.508;2022-08-06T16:25:41;2.53;;;0.70;;
72728;SDS011;60843;52.062;4.508;2022-08-06T16:28:07;2.78;;;0.60;;
72728;SDS011;60843;52.062;4.508;2022-08-06T16:30:33;2.17;;;0.73;;
72728;SDS011;60843;52.062;4.508;2022-08-06T16:33:00;5.35;;;0.70;;
72728;SDS011;60843;52.062;4.508;2022-08-06T16:35:26;2.58;;;0.50;;
72728;SDS011;60843;52.062;4.508;2022-08-06T16:37:51;1.58;;;0.45;;
72728;SDS011;60843;52.062;4.508;2022-08-06T16:40:18;1.63;;;0.90;;
72728;SDS011;60843;52.062;4.508;2022-08-06T16:42:48;0.82;;;0.40;;
72728;SDS011;60843;52.062;4.508;2022-08-06T16:45:14;1.77;;;0.60;;
72728;SDS011;60843;52.062;4.508;2022-08-06T16:47:40;1.85;;;0.55;;
72728;SDS011;60843;52.062;4.508;2022-08-06T16:50:07;1.15;;;0.43;;
72728;SDS011;60843;52.062;4.508;2022-08-06T16:52:33;1.20;;;0.60;;
72728;SDS011;60843;52.062;4.508;2022-08-06T16:54:58;1.17;;;0.53;;